Terminal Aerodrome Forecast
Issued by NWS Jacksonville, FL

Home | Current Version | Previous Version | Text Only | Print | Product List | Glossary On
Versions: 1 2 3 4 5 6 7 8 9 10 11 12 13 14 15 16 17 18 19
000
FTUS42 KJAX 261200 AAB
TAFJAX
TAF AMD
KJAX 261232Z 2613/2712 24006KT P6SM VCSH SCT030
     FM261700 25008KT P6SM VCTS SCT040CB BKN250
     FM270100 22004KT P6SM SCT040 SCT080 BKN250=

USA.gov is the U.S. government's official web portal to all federal, state and local government web resources and services.